Time;durP1;ratioP1;P1;durP2;ratioP2;P2;SDS_P1;SDS_P2;PMS_P1;PMS_P2;Temp;Humidity;BMP_temperature;BMP_pressure;BME280_temperature;BME280_humidity;BME280_pressure;Samples;Min_cycle;Max_cycle;Signal;HPM_P1;HPM_P2
2022/04/05 00:01:36;;;;;;;11.23;5.70;;;;;;;6.17;53.61;99386.09;4480610;31;33946;-80
2022/04/05 00:04:04;;;;;;;9.40;6.53;;;;;;;6.24;53.39;99374.50;4492887;31;33041;-80
2022/04/05 00:06:31;;;;;;;11.57;6.97;;;;;;;5.98;54.10;99377.97;4494253;31;32172;-80
2022/04/05 00:08:59;;;;;;;10.27;5.90;;;;;;;6.10;53.80;99368.84;4492360;31;33954;-80
2022/04/05 00:11:27;;;;;;;7.97;6.07;;;;;;;6.16;53.36;99360.78;4491329;31;32461;-81
2022/04/05 00:13:54;;;;;;;10.48;6.25;;;;;;;6.15;53.52;99370.41;4494070;31;33593;-81
2022/04/05 00:16:22;;;;;;;12.80;7.10;;;;;;;6.35;52.71;99363.66;4477620;31;34175;-80
2022/04/05 00:18:50;;;;;;;10.38;7.12;;;;;;;5.99;53.89;99368.34;4478692;31;33596;-80
2022/04/05 00:21:17;;;;;;;14.35;6.55;;;;;;;5.62;54.79;99364.22;4492571;31;34021;-81
2022/04/05 00:23:45;;;;;;;10.93;5.65;;;;;;;5.73;54.73;99362.13;4491308;31;33462;-81
2022/04/05 00:26:13;;;;;;;9.80;6.68;;;;;;;5.75;54.79;99368.19;4492065;31;34308;-81
2022/04/05 00:28:41;;;;;;;11.55;6.55;;;;;;;5.69;55.00;99364.88;4479267;31;33094;-81
2022/04/05 00:31:08;;;;;;;10.75;6.45;;;;;;;5.61;55.53;99365.12;4466222;31;33717;-81
2022/04/05 00:33:39;;;;;;;11.20;6.40;;;;;;;5.93;54.65;99363.28;4493127;31;33457;-81
2022/04/05 00:36:07;;;;;;;9.73;5.87;;;;;;;5.66;55.01;99358.00;4492844;31;34189;-81
2022/04/05 00:38:34;;;;;;;10.65;6.65;;;;;;;5.60;55.56;99355.53;4467223;31;32696;-81
2022/04/05 00:41:02;;;;;;;13.25;6.95;;;;;;;5.36;56.42;99351.91;4489856;31;33691;-81
2022/04/05 00:43:30;;;;;;;10.82;6.47;;;;;;;5.60;55.90;99352.91;4479343;31;33774;-81
2022/04/05 00:45:57;;;;;;;10.73;5.60;;;;;;;5.50;56.41;99349.72;4493064;31;33703;-81
2022/04/05 00:48:31;;;;;;;11.90;6.55;;;;;;;5.76;56.14;99351.56;4479081;31;33620;-81
2022/04/05 00:50:59;;;;;;;13.65;6.75;;;;;;;6.01;55.28;99342.94;4479897;31;33949;-81
2022/04/05 00:53:28;;;;;;;11.05;7.57;;;;;;;6.17;54.73;99341.53;4490976;31;34184;-81
2022/04/05 00:55:57;;;;;;;12.77;6.75;;;;;;;6.02;55.25;99332.41;4478362;31;32838;-81
2022/04/05 00:58:25;;;;;;;13.23;6.50;;;;;;;5.79;56.17;99334.88;4491868;31;33790;-81
2022/04/05 01:00:53;;;;;;;8.55;5.62;;;;;;;5.66;56.89;99323.94;4494220;31;34447;-81
2022/04/05 01:03:22;;;;;;;9.38;6.40;;;;;;;5.78;56.69;99331.41;4478428;31;33466;-81
2022/04/05 01:05:52;;;;;;;10.48;6.93;;;;;;;5.75;56.77;99331.50;4493430;31;33513;-81
2022/04/05 01:08:21;;;;;;;10.85;6.68;;;;;;;5.90;55.92;99328.41;4477116;31;32687;-81
2022/04/05 01:10:49;;;;;;;14.60;6.75;;;;;;;5.88;56.51;99327.56;4476728;31;33919;-81
2022/04/05 01:13:18;;;;;;;12.60;6.60;;;;;;;5.78;56.90;99330.53;4480219;31;33104;-81
2022/04/05 01:15:46;;;;;;;10.52;6.97;;;;;;;5.72;57.28;99326.34;4494514;31;33858;-81
2022/04/05 01:18:14;;;;;;;10.18;5.97;;;;;;;5.65;58.09;99336.19;4491717;31;33837;-81
2022/04/05 01:20:43;;;;;;;11.43;6.87;;;;;;;5.92;57.40;99320.50;4491061;31;33873;-81
2022/04/05 01:23:10;;;;;;;10.07;6.50;;;;;;;5.81;57.51;99326.06;4479298;31;33063;-81
2022/04/05 01:25:42;;;;;;;14.77;6.97;;;;;;;5.84;57.38;99320.75;4465674;31;32416;-81
2022/04/05 01:28:09;;;;;;;13.70;6.65;;;;;;;5.97;57.02;99317.75;4489942;31;34188;-82
2022/04/05 01:30:37;;;;;;;12.52;7.45;;;;;;;6.14;56.58;99315.44;4464999;31;32958;-82
2022/04/05 01:33:05;;;;;;;9.93;7.60;;;;;;;5.96;57.03;99323.88;4489050;31;33640;-82
2022/04/05 01:35:34;;;;;;;13.88;7.62;;;;;;;5.99;57.52;99310.69;4479161;31;33167;-82
2022/04/05 01:38:03;;;;;;;11.63;7.65;;;;;;;5.99;57.46;99313.31;4485614;31;33811;-81
2022/04/05 01:40:31;;;;;;;12.02;7.70;;;;;;;6.07;57.36;99313.91;4478828;31;34586;-81
2022/04/05 01:42:58;;;;;;;11.20;7.70;;;;;;;6.01;57.51;99317.59;4490823;31;32468;-82
2022/04/05 01:45:26;;;;;;;14.80;8.30;;;;;;;6.09;57.28;99318.19;4479599;31;32549;-81
2022/04/05 01:47:54;;;;;;;13.93;9.02;;;;;;;6.19;57.01;99310.88;4478449;31;33554;-81
2022/04/05 01:50:22;;;;;;;13.82;8.95;;;;;;;5.64;58.69;99316.09;4491830;31;33895;-81
2022/04/05 01:52:50;;;;;;;15.57;10.05;;;;;;;5.80;58.15;99311.25;4477716;31;34041;-80
2022/04/05 01:55:17;;;;;;;15.70;9.57;;;;;;;6.32;56.84;99306.94;4493037;31;34151;-81
2022/04/05 01:57:44;;;;;;;13.60;8.75;;;;;;;5.90;57.98;99312.66;4478296;31;32275;-81
2022/04/05 02:00:16;;;;;;;16.37;9.70;;;;;;;6.14;57.50;99311.03;4476331;31;33450;-81
2022/04/05 02:02:45;;;;;;;14.70;9.32;;;;;;;6.50;56.56;99301.94;4491201;31;33432;-81
2022/04/05 02:05:12;;;;;;;14.13;7.97;;;;;;;5.90;58.44;99307.44;4489937;31;34121;-81
2022/04/05 02:07:40;;;;;;;16.00;9.13;;;;;;;5.63;59.18;99301.31;4476775;31;33301;-81
2022/04/05 02:10:08;;;;;;;13.70;8.68;;;;;;;5.96;58.50;99295.06;4476050;31;33282;-81
2022/04/05 02:12:35;;;;;;;15.23;8.20;;;;;;;5.85;59.32;99288.38;4490105;31;33964;-81
2022/04/05 02:15:04;;;;;;;13.88;8.95;;;;;;;5.95;59.04;99294.22;4477234;31;33723;-81
2022/04/05 02:17:32;;;;;;;12.73;7.72;;;;;;;6.09;58.62;99292.00;4491431;31;33762;-81
2022/04/05 02:20:02;;;;;;;13.75;8.45;;;;;;;5.94;59.16;99296.91;4478889;31;33355;-81
2022/04/05 02:22:30;;;;;;;14.05;9.05;;;;;;;6.13;58.25;99292.75;4491546;31;34642;-81
2022/04/05 02:25:01;;;;;;;13.62;8.43;;;;;;;6.09;58.53;99288.50;4478532;31;32537;-81
2022/04/05 02:27:30;;;;;;;15.30;8.68;;;;;;;5.96;59.35;99289.81;4492004;31;33433;-81
2022/04/05 02:29:58;;;;;;;14.95;9.15;;;;;;;6.09;59.32;99284.13;4465646;31;33263;-81
2022/04/05 02:32:26;;;;;;;12.52;7.87;;;;;;;6.24;58.76;99292.37;4478148;31;33849;-81
2022/04/05 02:34:54;;;;;;;11.35;7.53;;;;;;;6.41;58.36;99283.03;4477106;31;33500;-81
2022/04/05 02:37:22;;;;;;;10.95;7.80;;;;;;;6.26;58.84;99278.28;4490935;31;34298;-82
2022/04/05 02:39:51;;;;;;;12.15;7.43;;;;;;;6.20;59.33;99278.50;4478818;31;34624;-81
2022/04/05 02:42:19;;;;;;;12.25;8.13;;;;;;;6.23;59.25;99270.56;4491199;31;33507;-81
2022/04/05 02:44:47;;;;;;;14.00;8.18;;;;;;;6.43;58.79;99269.00;4464915;31;31996;-81
2022/04/05 02:47:15;;;;;;;12.90;7.65;;;;;;;6.44;58.74;99260.22;4467241;31;32845;-81
2022/04/05 02:49:44;;;;;;;11.18;7.60;;;;;;;6.46;58.50;99274.12;4490182;31;34347;-81
2022/04/05 02:52:15;;;;;;;11.05;7.45;;;;;;;6.35;58.74;99272.72;4490723;31;33566;-81
2022/04/05 02:54:44;;;;;;;11.57;6.95;;;;;;;6.49;58.32;99259.13;4492410;31;33775;-81
2022/04/05 02:57:12;;;;;;;15.05;8.15;;;;;;;6.60;58.19;99264.88;4478350;31;33239;-81
2022/04/05 02:59:40;;;;;;;12.65;8.88;;;;;;;6.80;57.50;99256.28;4491930;31;33942;-81
2022/04/05 03:02:08;;;;;;;13.43;7.82;;;;;;;6.60;57.99;99251.75;4476061;31;33523;-81
2022/04/05 03:04:36;;;;;;;11.90;6.97;;;;;;;6.98;56.62;99246.84;4492182;31;32960;-81
2022/04/05 03:07:04;;;;;;;18.45;7.93;;;;;;;6.82;57.15;99246.56;4464428;31;33092;-81
2022/04/05 03:09:32;;;;;;;13.38;7.65;;;;;;;6.62;57.91;99239.44;4490458;31;34332;-81
2022/04/05 03:12:00;;;;;;;13.57;8.18;;;;;;;6.41;58.60;99248.94;4491506;31;34007;-81
2022/04/05 03:14:28;;;;;;;14.02;8.35;;;;;;;6.31;59.28;99242.28;4464836;31;32086;-81
2022/04/05 03:16:57;;;;;;;14.07;7.32;;;;;;;6.64;58.43;99234.13;4475284;31;34533;-81
2022/04/05 03:19:24;;;;;;;10.77;6.62;;;;;;;6.59;58.44;99234.28;4465038;32;32731;-81
2022/04/05 03:21:52;;;;;;;12.55;7.43;;;;;;;6.64;58.50;99227.09;4478318;31;33115;-81
2022/04/05 03:24:20;;;;;;;15.25;8.70;;;;;;;6.58;58.58;99227.31;4491947;31;34085;-81
2022/04/05 03:26:48;;;;;;;17.15;9.23;;;;;;;6.52;58.59;99232.81;4478729;31;34187;-81
2022/04/05 03:29:19;;;;;;;13.07;7.45;;;;;;;6.55;58.41;99234.44;4477539;31;32887;-81
2022/04/05 03:31:47;;;;;;;13.85;7.43;;;;;;;6.69;58.07;99229.56;4477511;31;34910;-81
2022/04/05 03:34:15;;;;;;;13.32;7.43;;;;;;;6.54;58.43;99225.72;4491017;31;33161;-81
2022/04/05 03:36:43;;;;;;;11.65;8.10;;;;;;;6.60;58.32;99224.66;4478187;31;34464;-82
2022/04/05 03:39:13;;;;;;;13.82;7.00;;;;;;;6.52;58.54;99231.97;4483478;31;32942;-81
2022/04/05 03:41:42;;;;;;;13.60;8.27;;;;;;;6.43;58.78;99225.28;4491943;31;33510;-81
2022/04/05 03:44:10;;;;;;;11.82;7.87;;;;;;;6.52;58.68;99226.72;4477181;32;33774;-81
2022/04/05 03:46:38;;;;;;;13.38;9.00;;;;;;;6.61;58.53;99229.00;4476850;31;32608;-80
2022/04/05 03:49:07;;;;;;;15.20;8.02;;;;;;;6.86;58.00;99223.69;4463272;31;34254;-81
2022/04/05 03:51:36;;;;;;;11.23;7.43;;;;;;;6.83;57.92;99222.03;4465014;31;33440;-81
2022/04/05 03:54:05;;;;;;;13.20;7.37;;;;;;;6.83;57.70;99222.03;4477392;31;33351;-81
2022/04/05 03:56:33;;;;;;;17.37;8.20;;;;;;;6.44;58.51;99226.13;4478283;31;32438;-80
2022/04/05 03:59:02;;;;;;;16.73;7.62;;;;;;;6.13;59.53;99220.22;4491629;31;33869;-81
2022/04/05 04:01:30;;;;;;;12.93;7.00;;;;;;;6.53;58.31;99215.31;4489395;31;33446;-80
2022/04/05 04:03:58;;;;;;;10.02;6.50;;;;;;;6.57;58.26;99216.91;4491106;31;33602;-82
2022/04/05 04:06:26;;;;;;;8.85;6.37;;;;;;;6.73;57.62;99218.03;4489928;31;33445;-82
2022/04/05 04:08:54;;;;;;;11.00;6.70;;;;;;;6.64;57.25;99216.59;4476020;31;32616;-82
2022/04/05 04:11:23;;;;;;;10.07;6.70;;;;;;;6.68;57.27;99217.34;4472937;31;34561;-81
2022/04/05 04:13:50;;;;;;;11.52;6.68;;;;;;;6.78;57.17;99220.50;4476918;31;33432;-82
2022/04/05 04:16:18;;;;;;;8.40;6.00;;;;;;;6.81;57.51;99223.84;4488298;31;34611;-81
2022/04/05 04:18:47;;;;;;;9.38;6.25;;;;;;;6.86;57.49;99221.91;4489708;31;33684;-81
2022/04/05 04:21:15;;;;;;;9.75;6.18;;;;;;;6.85;57.56;99229.84;4488881;31;33872;-81
2022/04/05 04:23:43;;;;;;;10.68;6.90;;;;;;;6.89;57.35;99216.56;4490954;31;33427;-80
2022/04/05 04:26:11;;;;;;;12.00;6.82;;;;;;;7.03;56.82;99218.66;4492009;31;34253;-81
2022/04/05 04:28:38;;;;;;;9.30;5.22;;;;;;;7.05;56.72;99215.97;4488945;31;34613;-81
2022/04/05 04:31:06;;;;;;;10.55;6.03;;;;;;;7.11;56.59;99216.56;4492166;31;34447;-80
2022/04/05 04:33:34;;;;;;;12.80;6.65;;;;;;;7.09;56.54;99213.16;4491750;31;34619;-81
2022/04/05 04:36:01;;;;;;;10.45;6.03;;;;;;;7.16;56.56;99212.00;4477965;31;34231;-81
2022/04/05 04:38:30;;;;;;;10.75;5.95;;;;;;;7.54;54.97;99204.34;4492733;31;33618;-81
2022/04/05 04:40:58;;;;;;;12.43;6.43;;;;;;;7.51;55.22;99208.91;4477585;31;34609;-81
2022/04/05 04:43:27;;;;;;;11.15;6.22;;;;;;;7.19;56.46;99218.91;4480953;31;33326;-81
2022/04/05 04:46:00;;;;;;;11.45;7.37;;;;;;;7.24;56.11;99222.22;4490097;31;34233;-82
2022/04/05 04:48:28;;;;;;;14.60;7.65;;;;;;;7.30;56.22;99214.09;4476478;31;32624;-81
2022/04/05 04:50:56;;;;;;;11.95;6.60;;;;;;;7.49;55.51;99216.81;4477917;31;32977;-81
2022/04/05 04:53:24;;;;;;;10.30;6.60;;;;;;;7.42;55.67;99218.84;4480090;31;32710;-81
2022/04/05 04:55:52;;;;;;;10.95;7.03;;;;;;;7.53;55.66;99223.66;4491701;31;34542;-81
2022/04/05 04:58:37;;;;;;;11.35;5.87;;;;;;;7.51;55.34;99215.00;4490484;31;34759;-82
2022/04/05 05:01:05;;;;;;;11.48;6.40;;;;;;;7.18;56.27;99230.34;4477754;31;33890;-82
2022/04/05 05:03:33;;;;;;;11.48;6.60;;;;;;;7.26;56.41;99223.00;4477752;31;32300;-82
2022/04/05 05:06:02;;;;;;;13.85;7.62;;;;;;;7.11;57.25;99223.59;4492022;31;33540;-82
2022/04/05 05:08:29;;;;;;;14.25;7.72;;;;;;;7.57;56.43;99219.16;4487060;31;32693;-82
2022/04/05 05:10:57;;;;;;;14.40;7.50;;;;;;;7.48;56.44;99215.13;4475864;31;32610;-82
2022/04/05 05:13:25;;;;;;;17.35;7.43;;;;;;;7.60;55.93;99217.25;4476987;31;34157;-81
2022/04/05 05:15:53;;;;;;;13.80;7.25;;;;;;;7.87;55.15;99212.62;4491310;31;34552;-82
2022/04/05 05:18:21;;;;;;;11.60;7.72;;;;;;;8.05;54.03;99207.50;4478011;31;33494;-81
2022/04/05 05:20:49;;;;;;;10.50;6.53;;;;;;;7.63;55.68;99211.00;4475334;31;33143;-82
2022/04/05 05:23:17;;;;;;;10.45;6.55;;;;;;;7.74;55.50;99211.44;4498024;31;34112;-82
2022/04/05 05:25:46;;;;;;;13.90;6.93;;;;;;;8.02;55.14;99203.22;4489920;31;33286;-81
2022/04/05 05:28:14;;;;;;;11.90;7.05;;;;;;;8.13;54.06;99202.78;4475690;31;33545;-81
2022/04/05 05:30:42;;;;;;;10.57;6.30;;;;;;;8.22;53.48;99205.03;4485321;31;33809;-82
2022/04/05 05:33:09;;;;;;;10.02;5.95;;;;;;;7.83;54.55;99213.69;4490956;31;34118;-81
2022/04/05 05:35:37;;;;;;;9.63;6.22;;;;;;;8.27;53.62;99200.41;4490474;31;34357;-81
2022/04/05 05:38:05;;;;;;;13.30;6.00;;;;;;;8.44;53.24;99208.44;4489372;31;34495;-81
2022/04/05 05:40:33;;;;;;;12.02;5.35;;;;;;;8.62;52.63;99205.91;4489925;31;34078;-81
2022/04/05 05:43:03;;;;;;;8.65;6.00;;;;;;;8.58;52.57;99204.31;4492323;31;34035;-81
2022/04/05 05:45:34;;;;;;;7.87;5.47;;;;;;;8.50;52.69;99203.81;4477157;31;32666;-81
2022/04/05 05:48:04;;;;;;;12.45;6.90;;;;;;;8.56;53.72;99206.19;4476284;31;36324;-81
2022/04/05 05:50:31;;;;;;;8.93;5.50;;;;;;;8.73;52.41;99203.63;4491693;31;34154;-81
2022/04/05 05:52:59;;;;;;;8.32;5.22;;;;;;;8.72;52.10;99213.31;4491131;31;33383;-81
2022/04/05 05:55:27;;;;;;;12.18;6.60;;;;;;;8.76;51.93;99221.91;4478364;31;32669;-81
2022/04/05 05:57:55;;;;;;;10.63;6.65;;;;;;;8.80;51.90;99223.50;4490343;31;33349;-81
2022/04/05 06:00:23;;;;;;;19.42;7.32;;;;;;;8.77;52.27;99228.03;4491199;31;33484;-81
2022/04/05 06:02:58;;;;;;;18.12;7.40;;;;;;;8.55;53.00;99230.81;4491535;31;33547;-81
2022/04/05 06:05:26;;;;;;;21.42;7.50;;;;;;;8.65;52.78;99237.34;4478494;31;33163;-81
2022/04/05 06:07:55;;;;;;;17.20;8.30;;;;;;;8.84;52.14;99232.13;4491312;31;33639;-81
2022/04/05 06:10:23;;;;;;;18.83;8.55;;;;;;;8.74;53.04;99226.41;4490357;31;33273;-81
2022/04/05 06:12:52;;;;;;;14.63;7.03;;;;;;;8.87;52.59;99231.97;4491460;31;35270;-81
2022/04/05 06:15:19;;;;;;;12.95;6.72;;;;;;;8.94;52.11;99238.66;4489282;31;33786;-81
2022/04/05 06:17:48;;;;;;;15.98;6.65;;;;;;;9.10;52.17;99236.16;4489170;31;33822;-81
2022/04/05 06:20:17;;;;;;;12.75;6.20;;;;;;;9.05;52.53;99231.13;4489777;31;33769;-80
2022/04/05 06:22:51;;;;;;;11.45;5.90;;;;;;;9.28;53.00;99232.66;4491457;31;32685;-80
2022/04/05 06:25:21;;;;;;;7.40;4.60;;;;;;;9.21;52.79;99236.53;4489866;31;33355;-80
2022/04/05 06:27:49;;;;;;;6.00;3.90;;;;;;;9.57;50.64;99225.16;4486544;31;32659;-80
2022/04/05 06:30:17;;;;;;;9.43;4.93;;;;;;;9.79;48.40;99223.16;4477527;31;32901;-80
2022/04/05 06:32:46;;;;;;;6.25;4.35;;;;;;;9.81;49.37;99221.28;4476216;31;33440;-81
2022/04/05 06:35:14;;;;;;;9.43;4.72;;;;;;;9.44;49.81;99224.88;4478612;31;32526;-80
2022/04/05 06:37:44;;;;;;;7.80;4.85;;;;;;;9.85;49.90;99211.47;4477236;31;34036;-80
2022/04/05 06:40:15;;;;;;;9.25;5.12;;;;;;;10.17;48.56;99217.75;4490463;31;34306;-80
2022/04/05 06:42:43;;;;;;;10.27;4.15;;;;;;;10.04;48.75;99211.38;4476826;31;34048;-80
2022/04/05 06:45:14;;;;;;;9.18;4.53;;;;;;;10.31;48.67;99220.56;4474981;32;33794;-81
2022/04/05 06:47:43;;;;;;;6.78;4.47;;;;;;;10.46;48.26;99214.47;4476377;31;34683;-80
2022/04/05 06:50:12;;;;;;;5.68;4.47;;;;;;;10.57;47.72;99220.97;4490731;31;34768;-81
2022/04/05 06:52:40;;;;;;;6.43;4.22;;;;;;;10.86;46.72;99216.78;4478974;31;33821;-80
2022/04/05 06:55:10;;;;;;;7.12;4.22;;;;;;;10.83;46.54;99217.81;4477769;31;32681;-80
2022/04/05 06:57:38;;;;;;;7.47;4.55;;;;;;;10.33;46.87;99215.19;4477349;31;34612;-80
2022/04/05 07:00:07;;;;;;;8.30;4.62;;;;;;;10.48;46.99;99211.75;4489755;31;34503;-81
2022/04/05 07:02:36;;;;;;;8.60;4.50;;;;;;;11.00;47.60;99209.81;4488649;31;32927;-80
2022/04/05 07:05:05;;;;;;;7.00;4.80;;;;;;;10.92;47.83;99212.03;4490640;31;33498;-80
2022/04/05 07:07:33;;;;;;;11.98;4.35;;;;;;;10.40;48.01;99211.31;4479303;31;34178;-80
2022/04/05 07:10:01;;;;;;;13.00;5.00;;;;;;;10.18;48.34;99215.03;4488137;31;33284;-80
2022/04/05 07:12:28;;;;;;;6.90;5.25;;;;;;;10.00;48.41;99221.22;4490006;31;32304;-80
2022/04/05 07:14:56;;;;;;;7.82;4.70;;;;;;;10.84;46.91;99221.28;4474920;31;32852;-80
2022/04/05 07:17:25;;;;;;;5.47;4.05;;;;;;;11.05;45.56;99211.34;4492289;31;34358;-80
2022/04/05 07:20:13;;;;;;;6.75;3.70;;;;;;;11.35;46.12;99214.94;4479951;31;33824;-80
2022/04/05 07:22:48;;;;;;;7.18;4.10;;;;;;;11.83;44.54;99215.75;4490329;31;32334;-81
2022/04/05 07:25:23;;;;;;;5.22;4.43;;;;;;;11.48;44.21;99213.28;4488966;31;33887;-80
2022/04/05 07:27:52;;;;;;;5.97;3.85;;;;;;;12.01;45.00;99204.09;4492778;31;34698;-80
2022/04/05 07:30:20;;;;;;;10.95;4.95;;;;;;;12.02;44.17;99195.22;4473120;31;33097;-80
2022/04/05 07:32:48;;;;;;;11.93;5.30;;;;;;;12.25;44.12;99206.22;4477441;31;32331;-80
2022/04/05 07:35:17;;;;;;;9.43;5.15;;;;;;;12.27;44.51;99199.88;4464383;31;34057;-80
2022/04/05 07:37:46;;;;;;;5.78;3.83;;;;;;;12.71;43.13;99193.66;4486187;31;33754;-80
2022/04/05 07:40:14;;;;;;;7.80;4.15;;;;;;;12.73;42.85;99193.59;4492451;31;33540;-80
2022/04/05 07:42:46;;;;;;;6.50;4.68;;;;;;;12.68;42.66;99188.56;4491073;31;33012;-80
2022/04/05 07:45:15;;;;;;;7.00;4.20;;;;;;;11.87;44.39;99188.19;4491610;31;33360;-81
2022/04/05 07:47:43;;;;;;;8.70;5.03;;;;;;;11.97;44.70;99191.97;4481104;31;33705;-80
2022/04/05 07:50:11;;;;;;;7.43;5.10;;;;;;;11.73;46.11;99194.25;4493183;31;33238;-80
2022/04/05 07:52:38;;;;;;;7.78;4.62;;;;;;;11.18;46.40;99209.72;4470567;31;32290;-80
2022/04/05 07:55:07;;;;;;;7.93;5.00;;;;;;;11.22;47.20;99212.12;4494854;31;33482;-80
2022/04/05 07:57:40;;;;;;;11.52;5.10;;;;;;;11.80;46.12;99208.81;4491837;31;34482;-81
2022/04/05 08:00:08;;;;;;;9.20;4.40;;;;;;;12.13;46.13;99202.50;4493972;31;34285;-81
2022/04/05 08:02:39;;;;;;;6.45;4.50;;;;;;;12.65;45.71;99198.50;4471577;31;33604;-80
2022/04/05 08:05:15;;;;;;;8.45;4.85;;;;;;;12.05;45.24;99200.28;4484936;31;33163;-80
2022/04/05 08:07:44;;;;;;;7.40;4.70;;;;;;;12.30;44.96;99202.34;4495898;31;33995;-81
2022/04/05 08:10:13;;;;;;;7.55;4.32;;;;;;;12.54;44.73;99204.47;4496759;31;34008;-82
2022/04/05 08:12:46;;;;;;;9.82;4.70;;;;;;;12.67;43.21;99194.78;4496722;31;33296;-80
2022/04/05 08:15:15;;;;;;;;;;;;;;;12.48;43.30;99197.72;4480519;32;33754;-81
2022/04/05 08:17:42;;;;;;;11.00;3.72;;;;;;;11.88;43.21;99203.09;4496492;31;33973;-80
2022/04/05 08:20:10;;;;;;;6.78;4.68;;;;;;;12.43;42.57;99199.78;4492476;31;33570;-80
2022/04/05 08:22:38;;;;;;;6.10;4.40;;;;;;;12.49;42.58;99202.09;4472144;31;32653;-80
2022/04/05 08:25:09;;;;;;;7.85;4.32;;;;;;;12.28;41.39;99206.03;4479487;31;33510;-80
2022/04/05 08:27:37;;;;;;;5.57;3.90;;;;;;;12.43;42.04;99201.59;4479166;31;33885;-80
2022/04/05 08:30:06;;;;;;;6.35;3.92;;;;;;;12.41;42.60;99200.84;4491765;31;34028;-80
2022/04/05 08:32:36;;;;;;;6.57;4.60;;;;;;;12.49;42.75;99210.03;4490688;31;33356;-81
2022/04/05 08:35:05;;;;;;;8.52;4.60;;;;;;;12.36;43.15;99211.72;4480920;31;33172;-80
2022/04/05 08:37:32;;;;;;;7.50;4.50;;;;;;;12.41;43.08;99201.69;4479983;31;33659;-80
2022/04/05 08:40:06;;;;;;;8.70;4.62;;;;;;;12.99;41.45;99203.38;4492459;31;33786;-80
2022/04/05 08:42:35;;;;;;;7.57;5.30;;;;;;;12.85;42.58;99199.91;4493331;31;33021;-81
2022/04/05 08:45:06;;;;;;;9.10;5.10;;;;;;;12.80;43.62;99198.38;4492360;31;33377;-80
2022/04/05 08:47:34;;;;;;;6.12;4.72;;;;;;;12.22;43.47;99196.66;4491577;31;34017;-80
2022/04/05 08:50:03;;;;;;;7.78;4.87;;;;;;;12.60;41.54;99193.47;4492226;31;33160;-80
2022/04/05 08:52:31;;;;;;;6.75;4.15;;;;;;;12.32;41.61;99191.66;4492507;31;34144;-80
2022/04/05 08:54:59;;;;;;;5.90;4.20;;;;;;;12.24;42.18;99192.13;4491421;31;33399;-80
2022/04/05 08:57:26;;;;;;;4.20;3.25;;;;;;;12.74;40.68;99201.41;4492728;31;34365;-80
2022/04/05 08:59:54;;;;;;;6.00;3.75;;;;;;;12.83;40.51;99192.06;4489864;31;33382;-80
2022/04/05 09:02:26;;;;;;;7.57;4.18;;;;;;;13.31;39.27;99189.91;4476490;31;33440;-80
2022/04/05 09:04:54;;;;;;;5.93;4.40;;;;;;;13.00;39.72;99186.53;4490114;31;33588;-80
2022/04/05 09:07:23;;;;;;;7.40;3.33;;;;;;;13.36;40.41;99186.97;4490899;31;34435;-80
2022/04/05 09:10:14;;;;;;;4.62;3.03;;;;;;;13.74;39.47;99187.09;4464363;31;32853;-81
2022/04/05 09:12:46;;;;;;;3.10;2.65;;;;;;;13.74;38.84;99184.44;4479590;31;33128;-82
2022/04/05 09:15:16;;;;;;;6.18;3.45;;;;;;;14.31;37.91;99189.44;4489893;31;33666;-82
2022/04/05 09:17:46;;;;;;;6.32;3.75;;;;;;;14.42;38.81;99186.88;4493150;31;34399;-81
2022/04/05 09:20:16;;;;;;;12.55;3.78;;;;;;;14.48;38.54;99181.19;4476037;31;33177;-81
2022/04/05 09:22:43;;;;;;;5.82;4.07;;;;;;;13.66;39.57;99195.56;4476266;31;33763;-81
2022/04/05 09:25:14;;;;;;;5.15;4.07;;;;;;;13.10;40.65;99197.41;4478507;31;33480;-82
2022/04/05 09:27:43;;;;;;;5.32;3.65;;;;;;;13.21;41.31;99189.62;4489790;31;34778;-81
2022/04/05 09:30:12;;;;;;;7.90;4.18;;;;;;;13.94;40.79;99186.63;4478692;31;32838;-82
2022/04/05 09:32:45;;;;;;;9.20;3.90;;;;;;;13.82;41.87;99183.00;4465926;31;32341;-82
2022/04/05 09:35:13;;;;;;;5.90;4.03;;;;;;;13.64;41.63;99199.28;4492840;31;33457;-82
2022/04/05 09:37:46;;;;;;;5.30;4.25;;;;;;;13.84;41.70;99190.84;4479460;31;33090;-82
2022/04/05 09:40:17;;;;;;;;;;;;;;;12.86;43.17;99191.84;4488843;31;33828;-82
2022/04/05 09:43:14;;;;;;;5.28;3.97;;;;;;;13.24;43.69;99193.91;4474818;31;33264;-82
2022/04/05 09:45:57;;;;;;;8.65;5.05;;;;;;;13.31;43.43;99195.22;4476932;31;33626;-81
2022/04/05 09:48:28;;;;;;;10.67;5.07;;;;;;;12.41;45.58;99200.84;4478438;31;32858;-82
2022/04/05 09:51:10;;;;;;;10.70;5.18;;;;;;;12.66;45.83;99198.38;4477230;31;33661;-82
2022/04/05 09:53:50;;;;;;;7.82;4.80;;;;;;;13.44;44.55;99195.28;4492324;31;33283;-82
2022/04/05 09:56:46;;;;;;;8.85;4.37;;;;;;;13.20;44.24;99195.88;4477759;31;33136;-82
2022/04/05 09:59:18;;;;;;;5.70;4.10;;;;;;;12.80;43.45;99194.88;4495731;31;33594;-81
2022/04/05 10:01:47;;;;;;;5.70;3.65;;;;;;;12.79;41.92;99195.84;4491017;31;33537;-81
2022/04/05 10:04:17;;;;;;;4.28;3.25;;;;;;;12.86;41.79;99194.50;4477199;31;32296;-81
2022/04/05 10:06:49;;;;;;;5.62;3.70;;;;;;;13.48;41.75;99189.69;4497776;31;33127;-81
2022/04/05 10:09:18;;;;;;;5.20;3.50;;;;;;;13.55;42.34;99193.63;4490162;31;34455;-81
2022/04/05 10:11:46;;;;;;;5.20;4.00;;;;;;;13.56;41.40;99192.66;4490454;31;34216;-81
2022/04/05 10:14:20;;;;;;;7.45;5.00;;;;;;;13.70;41.36;99189.09;4479612;31;32626;-81
2022/04/05 10:16:49;;;;;;;4.55;3.50;;;;;;;13.47;41.44;99187.97;4478550;31;34957;-81
2022/04/05 10:19:19;;;;;;;5.22;4.10;;;;;;;13.51;42.53;99181.50;4474895;31;33786;-81
2022/04/05 10:21:48;;;;;;;5.80;3.87;;;;;;;13.14;42.09;99192.75;4489861;31;34310;-81
2022/04/05 10:24:17;;;;;;;5.15;4.53;;;;;;;13.40;41.84;99184.03;4490984;31;33940;-81
2022/04/05 10:26:48;;;;;;;4.78;3.83;;;;;;;13.93;42.19;99179.63;4479892;31;33879;-81
2022/04/05 10:29:18;;;;;;;5.57;3.78;;;;;;;13.90;40.85;99181.62;4478026;31;33434;-81
2022/04/05 10:32:00;;;;;;;5.75;4.03;;;;;;;13.62;41.72;99179.94;4479203;31;33144;-81
2022/04/05 10:34:44;;;;;;;5.80;3.78;;;;;;;14.02;41.18;99173.69;4488698;31;33007;-81
2022/04/05 10:37:18;;;;;;;7.00;4.30;;;;;;;14.68;40.52;99173.62;4491396;31;33445;-81
2022/04/05 10:39:57;;;;;;;5.45;3.60;;;;;;;15.10;40.84;99162.59;4491297;31;33324;-81
2022/04/05 10:42:37;;;;;;;5.53;3.75;;;;;;;15.51;39.87;99166.66;4488481;31;32965;-81
2022/04/05 10:45:12;;;;;;;5.50;4.03;;;;;;;15.83;38.23;99164.28;4476614;31;32885;-82
2022/04/05 10:47:55;;;;;;;4.40;3.78;;;;;;;15.53;37.38;99164.75;4492041;31;33386;-81
2022/04/05 10:51:09;;;;;;;5.60;3.85;;;;;;;14.99;37.43;99170.47;4478657;31;32920;-81
2022/04/05 10:53:40;;;;;;;5.22;4.00;;;;;;;14.96;39.33;99176.03;4485209;31;33469;-81
2022/04/05 10:56:08;;;;;;;5.65;4.22;;;;;;;15.44;37.85;99173.41;4489573;31;33007;-82
2022/04/05 10:58:36;;;;;;;5.97;3.28;;;;;;;15.45;38.05;99176.91;4492087;31;34584;-82
2022/04/05 11:01:23;;;;;;;4.72;3.70;;;;;;;15.63;37.49;99164.91;4492779;31;34873;-82
2022/04/05 11:04:28;;;;;;;5.47;3.33;;;;;;;16.36;36.15;99156.66;4478283;31;33654;-82
2022/04/05 11:07:02;;;;;;;4.32;3.08;;;;;;;16.75;35.50;99165.19;4479200;31;33114;-81
2022/04/05 11:09:34;;;;;;;5.55;3.20;;;;;;;16.93;34.96;99160.22;4490209;31;33869;-81
2022/04/05 11:12:05;;;;;;;4.60;3.45;;;;;;;17.18;34.53;99150.25;4488921;31;33110;-81
2022/04/05 11:14:39;;;;;;;4.18;3.33;;;;;;;17.12;35.60;99152.44;4489138;31;34236;-82
2022/04/05 11:17:08;;;;;;;5.43;3.17;;;;;;;16.65;36.39;99154.37;4492591;31;33308;-81
2022/04/05 11:19:45;;;;;;;4.78;3.33;;;;;;;16.56;34.59;99155.09;4492561;31;32353;-81
2022/04/05 11:22:19;;;;;;;3.95;2.78;;;;;;;17.03;33.32;99166.50;4478321;31;33821;-81
2022/04/05 11:25:13;;;;;;;5.35;2.33;;;;;;;16.72;34.12;99164.63;4488312;31;33322;-81
2022/04/05 11:27:45;;;;;;;2.65;1.90;;;;;;;16.71;33.88;99153.06;4489512;31;32967;-81
2022/04/05 11:30:39;;;;;;;2.23;1.77;;;;;;;16.53;34.01;99160.69;4492584;31;34953;-82
2022/04/05 11:33:41;;;;;;;3.20;1.85;;;;;;;16.01;34.80;99172.72;4477090;31;33556;-81
2022/04/05 11:36:13;;;;;;;1.87;1.73;;;;;;;15.60;37.34;99178.44;4453594;31;33871;-81
2022/04/05 11:38:47;;;;;;;3.05;1.95;;;;;;;16.04;38.23;99168.94;4476887;31;32677;-81
2022/04/05 11:41:23;;;;;;;2.28;1.95;;;;;;;16.26;37.08;99163.69;4471243;31;33231;-81
2022/04/05 11:43:57;;;;;;;3.90;3.20;;;;;;;16.33;36.12;99175.56;4492304;31;33595;-81
2022/04/05 11:46:45;;;;;;;3.62;2.83;;;;;;;16.21;37.40;99171.19;4480185;31;33602;-81
2022/04/05 11:49:14;;;;;;;2.78;2.30;;;;;;;15.77;38.85;99167.44;4477782;31;33730;-81